Time;durP1;ratioP1;P1;durP2;ratioP2;P2;SDS_P1;SDS_P2;PMS_P1;PMS_P2;Temp;Humidity;BMP_temperature;BMP_pressure;BME280_temperature;BME280_humidity;BME280_pressure;Samples;Min_cycle;Max_cycle;Signal;HPM_P1;HPM_P2
2023/05/05 00:01:58;;;;;;;7.63;5.85;;;18.20;99.90;;;;;;5073316;28;20194;-70
2023/05/05 00:04:24;;;;;;;10.00;5.28;;;18.10;99.90;;;;;;5048490;28;20661;-70
2023/05/05 00:06:50;;;;;;;9.13;4.95;;;18.10;99.90;;;;;;5057022;28;20182;-71
2023/05/05 00:09:15;;;;;;;6.55;4.97;;;18.00;99.90;;;;;;5048230;28;20544;-70
2023/05/05 00:11:41;;;;;;;8.50;5.53;;;18.00;99.90;;;;;;5048921;28;20597;-68
2023/05/05 00:14:07;;;;;;;5.72;4.90;;;17.80;99.90;;;;;;5048096;28;20193;-71
2023/05/05 00:16:32;;;;;;;6.40;5.22;;;17.90;99.90;;;;;;5053675;28;20565;-71
2023/05/05 00:18:58;;;;;;;6.97;5.60;;;17.80;99.90;;;;;;5035320;28;20232;-70
2023/05/05 00:21:26;;;;;;;5.70;5.20;;;17.80;99.90;;;;;;5050080;28;20209;-71
2023/05/05 00:23:52;;;;;;;6.30;5.07;;;17.70;99.90;;;;;;5051381;28;20642;-70
2023/05/05 00:26:18;;;;;;;7.32;5.90;;;17.70;99.90;;;;;;5042007;28;20190;-71
2023/05/05 00:28:44;;;;;;;5.88;5.30;;;17.60;99.90;;;;;;5053470;28;20669;-71
2023/05/05 00:31:09;;;;;;;7.65;5.40;;;17.50;99.90;;;;;;5050222;28;20190;-71
2023/05/05 00:33:35;;;;;;;7.25;4.72;;;17.50;99.90;;;;;;5052287;28;20182;-71
2023/05/05 00:36:01;;;;;;;7.32;5.18;;;17.40;99.90;;;;;;5051748;28;20288;-71
2023/05/05 00:38:27;;;;;;;8.00;5.55;;;17.40;99.90;;;;;;5041547;28;20186;-71
2023/05/05 00:40:53;;;;;;;7.45;5.38;;;17.30;99.90;;;;;;5048276;28;20201;-71
2023/05/05 00:43:18;;;;;;;7.18;5.80;;;17.20;99.90;;;;;;5053073;28;20190;-71
2023/05/05 00:45:46;;;;;;;6.70;5.47;;;17.10;99.90;;;;;;5040495;28;20198;-69
2023/05/05 00:48:12;;;;;;;7.57;5.95;;;17.00;99.90;;;;;;5048503;28;20265;-69
2023/05/05 00:50:38;;;;;;;6.53;5.55;;;17.10;99.90;;;;;;5080773;28;20213;-69
2023/05/05 00:53:05;;;;;;;7.38;5.55;;;17.00;99.90;;;;;;5052931;28;20263;-68
2023/05/05 00:55:33;;;;;;;9.13;6.78;;;16.90;99.90;;;;;;5046438;28;20190;-68
2023/05/05 00:57:59;;;;;;;7.35;6.10;;;16.90;99.90;;;;;;5052699;28;20251;-69
2023/05/05 01:00:26;;;;;;;10.30;6.68;;;16.80;99.90;;;;;;5045101;28;20190;-70
2023/05/05 01:02:52;;;;;;;7.80;6.18;;;16.80;99.90;;;;;;5050939;28;20196;-70
2023/05/05 01:05:23;;;;;;;9.35;5.97;;;16.80;99.90;;;;;;5045461;28;20651;-70
2023/05/05 01:08:30;;;;;;;8.15;6.25;;;16.70;99.90;;;;;;5042690;28;20182;-70
2023/05/05 01:11:11;;;;;;;7.90;6.25;;;16.70;99.90;;;;;;5036618;28;20178;-70
2023/05/05 01:13:52;;;;;;;12.38;7.28;;;16.60;99.90;;;;;;5033719;28;20179;-72
2023/05/05 01:16:27;;;;;;;11.02;7.15;;;16.50;99.90;;;;;;5048702;28;20204;-70
2023/05/05 01:18:57;;;;;;;9.10;6.85;;;16.50;99.90;;;;;;5036161;28;20316;-70
2023/05/05 01:21:47;;;;;;;10.98;6.75;;;16.50;99.90;;;;;;5053485;28;20583;-70
2023/05/05 01:24:50;;;;;;;10.60;6.57;;;16.40;99.90;;;;;;5047011;28;20252;-70
2023/05/05 01:27:49;;;;;;;9.65;6.72;;;16.30;99.90;;;;;;5046362;28;20257;-70
2023/05/05 01:30:48;;;;;;;8.05;5.97;;;16.30;99.90;;;;;;5048463;28;20557;-70
2023/05/05 01:33:19;;;;;;;10.30;8.32;;;16.30;99.90;;;;;;5038441;28;20197;-71
2023/05/05 01:35:54;;;;;;;10.07;7.82;;;16.20;99.90;;;;;;5051935;28;20741;-70
2023/05/05 01:38:30;;;;;;;10.27;7.60;;;16.20;99.90;;;;;;5060996;28;20761;-70
2023/05/05 01:41:06;;;;;;;21.08;10.13;;;16.20;99.90;;;;;;5046592;28;20181;-70
2023/05/05 01:43:35;;;;;;;13.20;8.63;;;16.20;99.90;;;;;;5048786;28;20550;-70
2023/05/05 01:46:03;;;;;;;14.23;9.75;;;16.20;99.90;;;;;;5046115;28;20531;-70
2023/05/05 01:48:30;;;;;;;14.55;10.07;;;16.10;99.90;;;;;;5042677;28;20640;-70
2023/05/05 01:50:56;;;;;;;15.95;11.27;;;16.20;99.90;;;;;;5051069;28;20660;-71
2023/05/05 01:53:24;;;;;;;16.70;10.63;;;16.20;99.90;;;;;;5052053;28;20193;-71
2023/05/05 01:55:52;;;;;;;16.05;9.95;;;16.20;99.90;;;;;;5041593;28;20222;-70
2023/05/05 01:58:20;;;;;;;15.63;11.07;;;16.20;99.90;;;;;;5045396;28;20602;-74
2023/05/05 02:00:47;;;;;;;15.23;9.98;;;16.10;99.90;;;;;;5035166;28;20190;-72
2023/05/05 02:03:16;;;;;;;10.63;8.77;;;16.10;99.90;;;;;;5041545;28;20189;-70
2023/05/05 02:05:43;;;;;;;11.48;8.50;;;16.10;99.90;;;;;;5045495;28;20588;-70
2023/05/05 02:08:10;;;;;;;11.23;7.80;;;16.10;99.90;;;;;;5039274;28;20228;-70
2023/05/05 02:10:41;;;;;;;10.15;7.32;;;16.00;99.90;;;;;;5077501;28;20205;-70
2023/05/05 02:13:09;;;;;;;11.90;8.15;;;16.10;99.90;;;;;;5049078;28;20548;-70
2023/05/05 02:15:37;;;;;;;10.05;7.28;;;16.00;99.90;;;;;;5052255;28;20182;-70
2023/05/05 02:18:05;;;;;;;8.52;6.85;;;16.00;99.90;;;;;;5048264;28;20178;-70
2023/05/05 02:20:31;;;;;;;10.65;7.15;;;16.00;99.90;;;;;;5050007;28;20181;-70
2023/05/05 02:22:58;;;;;;;10.20;6.68;;;16.00;99.90;;;;;;5050932;28;20181;-70
2023/05/05 02:25:29;;;;;;;9.15;6.03;;;16.00;99.90;;;;;;5035606;28;20221;-71
2023/05/05 02:27:59;;;;;;;7.63;6.38;;;16.00;99.90;;;;;;5047368;28;20177;-70
2023/05/05 02:30:28;;;;;;;8.43;6.55;;;16.00;99.90;;;;;;5040403;28;20202;-71
2023/05/05 02:32:58;;;;;;;10.93;6.45;;;16.00;99.90;;;;;;5051467;28;20264;-70
2023/05/05 02:35:39;;;;;;;8.43;5.72;;;16.00;99.90;;;;;;5046472;28;20985;-70
2023/05/05 02:38:07;;;;;;;6.13;5.50;;;16.00;99.90;;;;;;5036764;28;20277;-70
2023/05/05 02:40:34;;;;;;;7.60;5.93;;;16.00;99.90;;;;;;5051937;28;20243;-69
2023/05/05 02:43:05;;;;;;;7.05;5.65;;;15.90;99.90;;;;;;5052055;28;20186;-70
2023/05/05 02:45:30;;;;;;;8.65;5.88;;;15.90;99.90;;;;;;5053390;28;20490;-70
2023/05/05 02:47:56;;;;;;;7.55;5.40;;;15.90;99.90;;;;;;5055290;28;20260;-70
2023/05/05 02:50:22;;;;;;;6.93;5.40;;;15.90;99.90;;;;;;5053997;28;20257;-70
2023/05/05 02:52:48;;;;;;;6.35;4.97;;;15.80;99.90;;;;;;5054276;28;20204;-69
2023/05/05 02:55:14;;;;;;;7.07;5.97;;;15.80;99.90;;;;;;5055385;28;20190;-70
2023/05/05 02:57:48;;;;;;;6.35;5.40;;;15.70;99.90;;;;;;5053854;28;20251;-70
2023/05/05 03:00:44;;;;;;;8.48;5.10;;;15.70;99.90;;;;;;5055377;28;20181;-70
2023/05/05 03:03:38;;;;;;;5.53;4.57;;;15.60;99.90;;;;;;5041321;28;20202;-74
2023/05/05 03:06:16;;;;;;;5.88;5.25;;;15.60;99.90;;;;;;5049626;28;20178;-69
2023/05/05 03:08:44;;;;;;;6.90;4.70;;;15.60;99.90;;;;;;5049565;28;20185;-71
2023/05/05 03:11:24;;;;;;;6.43;4.93;;;15.60;99.90;;;;;;5043609;28;20206;-70
2023/05/05 03:13:59;;;;;;;6.40;5.13;;;15.60;99.90;;;;;;5054626;28;20257;-72
2023/05/05 03:16:26;;;;;;;4.53;4.13;;;15.50;99.90;;;;;;5050751;28;20546;-70
2023/05/05 03:18:54;;;;;;;6.25;4.93;;;15.60;99.90;;;;;;5052103;28;20226;-72
2023/05/05 03:21:20;;;;;;;7.60;4.75;;;15.50;99.90;;;;;;5054171;28;20201;-71
2023/05/05 03:23:46;;;;;;;5.30;4.80;;;15.50;99.90;;;;;;5048589;28;20194;-70
2023/05/05 03:26:16;;;;;;;5.38;4.47;;;15.50;99.90;;;;;;5041827;28;20550;-70
2023/05/05 03:28:41;;;;;;;6.03;5.05;;;15.40;99.90;;;;;;5053781;28;20273;-71
2023/05/05 03:31:07;;;;;;;6.22;5.32;;;15.40;99.90;;;;;;5052661;28;20331;-71
2023/05/05 03:33:33;;;;;;;6.30;4.90;;;15.50;99.90;;;;;;5049828;28;20672;-71
2023/05/05 03:35:58;;;;;;;8.07;5.65;;;15.50;99.90;;;;;;5079409;28;20585;-72
2023/05/05 03:38:25;;;;;;;7.95;4.90;;;15.40;99.90;;;;;;5050721;28;20178;-71
2023/05/05 03:40:50;;;;;;;7.22;6.25;;;15.50;99.90;;;;;;5050270;28;20558;-71
2023/05/05 03:43:16;;;;;;;7.25;5.40;;;15.50;99.90;;;;;;5049982;28;20185;-71
2023/05/05 03:45:41;;;;;;;11.13;6.15;;;15.40;99.90;;;;;;5047966;28;20638;-71
2023/05/05 03:48:08;;;;;;;6.57;5.93;;;15.30;99.90;;;;;;5054709;28;20186;-71
2023/05/05 03:50:34;;;;;;;7.63;6.63;;;15.30;99.90;;;;;;5053736;28;20546;-70
2023/05/05 03:53:00;;;;;;;8.18;6.15;;;15.30;99.90;;;;;;5052341;28;20174;-70
2023/05/05 03:55:25;;;;;;;6.72;5.95;;;15.20;99.90;;;;;;5053121;28;20265;-70
2023/05/05 03:57:51;;;;;;;7.22;6.32;;;15.20;99.90;;;;;;5052118;28;20210;-70
2023/05/05 04:00:17;;;;;;;7.10;6.15;;;15.20;99.90;;;;;;5086346;28;20182;-70
2023/05/05 04:02:43;;;;;;;10.88;6.60;;;15.10;99.90;;;;;;5053980;28;20181;-70
2023/05/05 04:05:08;;;;;;;9.45;6.40;;;15.10;99.90;;;;;;5053943;28;20181;-70
2023/05/05 04:07:34;;;;;;;8.30;7.47;;;15.10;99.90;;;;;;5051728;28;20651;-71
2023/05/05 04:10:00;;;;;;;10.18;6.65;;;15.00;99.90;;;;;;5080249;28;20182;-73
2023/05/05 04:12:25;;;;;;;12.25;7.60;;;15.10;99.90;;;;;;5053146;28;20297;-71
2023/05/05 04:14:51;;;;;;;12.18;7.32;;;15.00;99.90;;;;;;5053862;28;20192;-71
2023/05/05 04:17:17;;;;;;;9.60;6.80;;;15.10;99.90;;;;;;5051241;28;20217;-71
2023/05/05 04:19:42;;;;;;;10.70;7.43;;;15.00;99.90;;;;;;5046654;28;20221;-70
2023/05/05 04:22:08;;;;;;;11.32;7.88;;;15.10;99.90;;;;;;5052455;28;20224;-73
2023/05/05 04:24:33;;;;;;;11.90;7.40;;;15.10;99.90;;;;;;5048324;28;20220;-70
2023/05/05 04:27:00;;;;;;;10.85;8.05;;;15.10;99.90;;;;;;5049849;28;20261;-70
2023/05/05 04:29:25;;;;;;;9.63;7.38;;;15.20;99.90;;;;;;5053376;28;20186;-70
2023/05/05 04:31:52;;;;;;;11.68;7.63;;;15.30;99.90;;;;;;5052807;28;20189;-70
2023/05/05 04:34:18;;;;;;;13.82;8.45;;;15.20;99.90;;;;;;5052277;28;20544;-71
2023/05/05 04:36:43;;;;;;;10.93;7.88;;;15.20;99.90;;;;;;5047856;28;20206;-67
2023/05/05 04:39:09;;;;;;;12.23;7.32;;;15.10;99.90;;;;;;5043808;28;20185;-67
2023/05/05 04:41:35;;;;;;;16.98;8.77;;;15.20;99.90;;;;;;5041495;28;20658;-67
2023/05/05 04:44:00;;;;;;;11.05;7.30;;;15.30;99.90;;;;;;5046632;28;20200;-71
2023/05/05 04:46:26;;;;;;;11.55;7.70;;;15.20;99.90;;;;;;5050700;28;20194;-67
2023/05/05 04:48:52;;;;;;;14.15;8.45;;;15.20;99.90;;;;;;5051989;28;20178;-69
2023/05/05 04:51:17;;;;;;;12.18;7.80;;;15.20;99.90;;;;;;5043795;28;20186;-73
2023/05/05 04:53:43;;;;;;;15.60;9.02;;;15.40;99.90;;;;;;5043192;28;20240;-68
2023/05/05 04:56:09;;;;;;;10.93;8.23;;;15.40;99.90;;;;;;5053059;28;20271;-69
2023/05/05 04:58:34;;;;;;;11.98;8.38;;;15.30;99.90;;;;;;5046703;28;20538;-69
2023/05/05 05:01:00;;;;;;;11.63;8.10;;;15.40;99.90;;;;;;5050850;28;20186;-69
2023/05/05 05:03:26;;;;;;;10.52;7.72;;;15.60;99.90;;;;;;5046213;28;20269;-70
2023/05/05 05:05:52;;;;;;;12.23;8.02;;;15.70;99.90;;;;;;5052071;28;20174;-71
2023/05/05 05:08:18;;;;;;;16.55;8.90;;;15.70;99.90;;;;;;5034151;28;20659;-71
2023/05/05 05:10:44;;;;;;;14.70;8.57;;;15.70;99.90;;;;;;5052248;28;20261;-68
2023/05/05 05:13:09;;;;;;;16.30;9.35;;;16.10;99.90;;;;;;5040777;28;20269;-69
2023/05/05 05:15:38;;;;;;;13.35;10.13;;;16.30;99.90;;;;;;5052117;28;20182;-71
2023/05/05 05:18:04;;;;;;;11.32;9.07;;;16.50;99.90;;;;;;5051311;28;20178;-68
2023/05/05 05:20:30;;;;;;;14.77;8.73;;;16.40;99.90;;;;;;5048958;28;20623;-71
2023/05/05 05:22:56;;;;;;;14.05;8.32;;;16.30;99.90;;;;;;5052242;28;20183;-67
2023/05/05 05:25:22;;;;;;;13.63;9.63;;;16.40;99.90;;;;;;5046234;28;20233;-70
2023/05/05 05:27:48;;;;;;;13.13;9.13;;;16.60;99.90;;;;;;5052038;28;20327;-69
2023/05/05 05:30:14;;;;;;;10.65;8.02;;;16.60;99.90;;;;;;5044809;28;20265;-68
2023/05/05 05:32:40;;;;;;;12.50;8.77;;;16.90;99.90;;;;;;5042815;28;20189;-72
2023/05/05 05:35:06;;;;;;;11.25;9.02;;;16.90;99.90;;;;;;5051124;28;20190;-70
2023/05/05 05:37:33;;;;;;;12.50;7.90;;;16.90;99.90;;;;;;5050165;28;20213;-68
2023/05/05 05:39:58;;;;;;;12.02;7.80;;;17.10;99.90;;;;;;5051425;28;20205;-67
2023/05/05 05:42:24;;;;;;;9.00;7.40;;;17.20;99.90;;;;;;5048488;28;20640;-66
2023/05/05 05:44:50;;;;;;;10.27;7.72;;;17.50;99.90;;;;;;5052189;28;20630;-67
2023/05/05 05:47:16;;;;;;;10.48;8.10;;;17.70;99.90;;;;;;5046959;28;20190;-67
2023/05/05 05:49:41;;;;;;;10.68;7.60;;;17.80;99.90;;;;;;5046050;28;20178;-72
2023/05/05 05:52:07;;;;;;;11.57;7.50;;;17.80;99.90;;;;;;5042483;28;20187;-72
2023/05/05 05:54:34;;;;;;;11.90;7.22;;;18.00;99.90;;;;;;5056993;28;20193;-74
2023/05/05 05:57:01;;;;;;;8.57;6.63;;;17.80;99.90;;;;;;5050616;28;20206;-72
2023/05/05 05:59:27;;;;;;;10.68;7.18;;;17.90;99.90;;;;;;5043483;28;20260;-74
2023/05/05 06:01:53;;;;;;;14.95;7.35;;;18.10;99.90;;;;;;5049518;28;20174;-74
2023/05/05 06:04:19;;;;;;;9.32;7.15;;;18.30;99.90;;;;;;5052576;28;20198;-72
2023/05/05 06:06:45;;;;;;;9.98;6.93;;;18.30;99.90;;;;;;5051454;28;20235;-71
2023/05/05 06:09:10;;;;;;;9.38;7.15;;;18.40;99.90;;;;;;5051402;28;20188;-73
2023/05/05 06:11:36;;;;;;;9.23;7.60;;;18.40;99.90;;;;;;5051819;28;20209;-72
2023/05/05 06:14:01;;;;;;;6.95;5.95;;;18.30;99.90;;;;;;5052499;28;20212;-72
2023/05/05 06:16:27;;;;;;;11.52;7.45;;;18.30;99.90;;;;;;5044753;28;20263;-75
2023/05/05 06:18:53;;;;;;;7.90;6.10;;;18.00;99.90;;;;;;5051456;28;20629;-72
2023/05/05 06:21:19;;;;;;;9.95;6.63;;;18.00;99.90;;;;;;5053032;28;20543;-72
2023/05/05 06:23:46;;;;;;;8.68;6.40;;;18.00;99.90;;;;;;5054564;28;20178;-72
2023/05/05 06:26:11;;;;;;;7.10;6.30;;;18.10;99.90;;;;;;5044369;28;20190;-73
2023/05/05 06:28:38;;;;;;;8.63;7.47;;;18.10;99.90;;;;;;5056326;28;20182;-73
2023/05/05 06:31:03;;;;;;;8.98;5.90;;;18.10;99.90;;;;;;5053256;28;20189;-72
2023/05/05 06:33:29;;;;;;;15.18;6.57;;;18.00;99.90;;;;;;5043468;28;20193;-73
2023/05/05 06:35:55;;;;;;;9.90;7.78;;;18.10;99.90;;;;;;5055573;28;20601;-72
2023/05/05 06:38:20;;;;;;;9.75;7.50;;;17.90;99.90;;;;;;5043416;28;20233;-71
2023/05/05 06:40:49;;;;;;;9.93;7.63;;;18.10;99.90;;;;;;5052207;28;20190;-71
2023/05/05 06:43:15;;;;;;;10.00;6.95;;;18.30;99.90;;;;;;5045499;28;20178;-71
2023/05/05 06:45:42;;;;;;;12.40;7.40;;;18.40;99.90;;;;;;5054390;28;20201;-72
2023/05/05 06:48:07;;;;;;;10.68;6.18;;;18.60;99.90;;;;;;5066308;28;20178;-71
2023/05/05 06:50:33;;;;;;;9.60;7.35;;;18.60;99.90;;;;;;5053863;28;20236;-71
2023/05/05 06:53:00;;;;;;;10.13;6.90;;;18.90;99.90;;;;;;5045024;28;20216;-74
2023/05/05 06:55:26;;;;;;;9.80;7.30;;;19.30;99.90;;;;;;5037409;28;20698;-72
2023/05/05 06:57:51;;;;;;;9.32;6.25;;;19.30;99.90;;;;;;5048578;28;20650;-71
2023/05/05 07:00:18;;;;;;;9.43;5.75;;;19.50;99.90;;;;;;5045529;28;20281;-72
2023/05/05 07:02:43;;;;;;;6.00;5.50;;;19.50;99.90;;;;;;5045289;28;20198;-72
2023/05/05 07:05:09;;;;;;;8.57;5.75;;;19.60;99.90;;;;;;5055252;28;20239;-72
2023/05/05 07:07:35;;;;;;;6.65;4.68;;;20.00;99.90;;;;;;5050154;28;20265;-72
2023/05/05 07:10:01;;;;;;;8.55;5.05;;;20.10;99.90;;;;;;5052778;28;20186;-72
2023/05/05 07:12:32;;;;;;;7.40;4.10;;;20.40;99.90;;;;;;5053629;28;20320;-73
2023/05/05 07:14:57;;;;;;;5.15;4.05;;;20.80;99.90;;;;;;5040276;28;20543;-73
2023/05/05 07:17:23;;;;;;;5.40;4.90;;;21.00;99.90;;;;;;5055162;28;20251;-72
2023/05/05 07:19:50;;;;;;;6.88;4.70;;;21.20;99.90;;;;;;5047767;28;20233;-74
2023/05/05 07:22:15;;;;;;;5.35;4.53;;;21.50;99.90;;;;;;5083586;28;20186;-72
2023/05/05 07:24:41;;;;;;;8.75;5.43;;;21.60;99.90;;;;;;5054800;28;20190;-72
2023/05/05 07:27:07;;;;;;;5.70;3.78;;;21.30;99.90;;;;;;5047775;28;20184;-71
2023/05/05 07:29:32;;;;;;;5.40;4.25;;;21.20;99.90;;;;;;5054235;28;20182;-71
2023/05/05 07:31:58;;;;;;;7.45;5.22;;;21.10;99.90;;;;;;5051962;28;20182;-72
2023/05/05 07:34:24;;;;;;;8.98;3.80;;;21.20;99.90;;;;;;5051197;28;20562;-72
2023/05/05 07:36:49;;;;;;;6.85;4.35;;;21.20;99.90;;;;;;5053542;28;20562;-71
2023/05/05 07:39:17;;;;;;;7.05;3.95;;;21.30;99.90;;;;;;5044088;28;20221;-72
2023/05/05 07:41:43;;;;;;;5.45;3.80;;;21.40;99.90;;;;;;5063076;28;20189;-71
2023/05/05 07:44:08;;;;;;;7.00;3.85;;;21.80;99.90;;;;;;5044875;28;20267;-72
2023/05/05 07:46:34;;;;;;;6.72;4.55;;;21.80;99.90;;;;;;5045701;28;20620;-72
2023/05/05 07:49:00;;;;;;;6.03;3.40;;;21.70;99.90;;;;;;5054601;28;20689;-72
2023/05/05 07:51:26;;;;;;;6.80;4.55;;;21.60;99.90;;;;;;5054240;28;20189;-72
2023/05/05 07:53:52;;;;;;;5.75;4.57;;;21.50;99.90;;;;;;5053180;28;20182;-71
2023/05/05 07:56:17;;;;;;;5.30;3.83;;;21.20;99.90;;;;;;5049447;28;20224;-71
2023/05/05 07:58:43;;;;;;;7.20;4.22;;;20.70;99.90;;;;;;5052886;28;20182;-72
2023/05/05 08:01:10;;;;;;;6.95;4.10;;;20.50;99.90;;;;;;5053958;28;20544;-73
2023/05/05 08:03:36;;;;;;;6.30;4.53;;;20.30;99.90;;;;;;5053963;28;20193;-72
2023/05/05 08:06:08;;;;;;;7.15;4.38;;;20.10;99.90;;;;;;5051419;28;20190;-72
2023/05/05 08:08:33;;;;;;;10.65;4.85;;;20.00;99.90;;;;;;5051550;28;20182;-73
2023/05/05 08:11:00;;;;;;;7.53;4.90;;;19.70;99.90;;;;;;5042857;28;20242;-72
2023/05/05 08:13:26;;;;;;;7.63;4.72;;;19.90;99.90;;;;;;5048149;28;20240;-72
2023/05/05 08:15:52;;;;;;;8.20;5.72;;;19.90;99.90;;;;;;5040890;28;20178;-72
2023/05/05 08:18:18;;;;;;;7.72;4.50;;;19.90;99.90;;;;;;5048962;28;20587;-71
2023/05/05 08:20:44;;;;;;;10.90;5.07;;;20.20;99.90;;;;;;5044449;28;20189;-72
2023/05/05 08:23:09;;;;;;;6.93;4.32;;;20.20;99.90;;;;;;5053896;28;20186;-71
2023/05/05 08:25:35;;;;;;;6.93;4.57;;;20.10;99.90;;;;;;5053829;28;20208;-72
2023/05/05 08:28:01;;;;;;;7.28;4.38;;;20.30;99.90;;;;;;5041574;28;20554;-72
2023/05/05 08:30:26;;;;;;;5.45;4.15;;;20.60;99.90;;;;;;5050947;28;20197;-74
2023/05/05 08:32:52;;;;;;;7.63;4.35;;;20.60;99.90;;;;;;5043596;28;20190;-73
2023/05/05 08:35:18;;;;;;;7.22;4.93;;;20.80;99.90;;;;;;5052666;28;20189;-72
2023/05/05 08:37:44;;;;;;;6.88;4.63;;;20.90;99.90;;;;;;5040627;28;20214;-72
2023/05/05 08:40:13;;;;;;;6.72;3.95;;;21.30;99.90;;;;;;5040465;28;20567;-72
2023/05/05 08:42:40;;;;;;;4.55;3.83;;;21.50;99.90;;;;;;5046269;28;20178;-72
2023/05/05 08:45:07;;;;;;;4.65;4.03;;;21.60;99.90;;;;;;5052209;28;20639;-72
2023/05/05 08:47:34;;;;;;;9.88;4.30;;;21.40;99.90;;;;;;5052276;28;20185;-72
2023/05/05 08:50:00;;;;;;;4.50;4.03;;;21.20;99.90;;;;;;5039936;28;20182;-72
2023/05/05 08:52:30;;;;;;;7.15;4.35;;;21.10;99.90;;;;;;5049211;28;20193;-72
2023/05/05 08:55:20;;;;;;;5.50;4.18;;;20.90;99.90;;;;;;5052945;28;20178;-72
2023/05/05 08:57:55;;;;;;;5.53;5.03;;;20.80;99.90;;;;;;5053367;28;20233;-71
2023/05/05 09:00:21;;;;;;;6.28;4.20;;;20.60;99.90;;;;;;5053268;28;20517;-71
2023/05/05 09:02:47;;;;;;;6.82;4.68;;;20.30;99.90;;;;;;5046136;28;20261;-71
2023/05/05 09:05:14;;;;;;;8.18;5.45;;;20.10;99.90;;;;;;5053020;28;20181;-72
2023/05/05 09:07:42;;;;;;;8.73;5.22;;;19.90;99.90;;;;;;5051814;28;20174;-72
2023/05/05 09:10:10;;;;;;;6.55;4.95;;;19.70;99.90;;;;;;5039449;28;20194;-74
2023/05/05 09:12:39;;;;;;;5.68;4.95;;;19.60;99.90;;;;;;5050589;28;20200;-74
2023/05/05 09:15:09;;;;;;;6.63;4.63;;;19.70;99.90;;;;;;5036576;28;20572;-73
2023/05/05 09:17:35;;;;;;;8.02;5.03;;;20.10;99.90;;;;;;5052919;28;20252;-74
2023/05/05 09:20:03;;;;;;;5.78;4.70;;;20.20;99.90;;;;;;5052620;28;20225;-72
2023/05/05 09:22:35;;;;;;;7.65;5.32;;;20.40;99.90;;;;;;5051291;28;20239;-73
2023/05/05 09:25:01;;;;;;;9.70;6.13;;;20.50;99.90;;;;;;5049969;28;20178;-73
2023/05/05 09:27:26;;;;;;;12.32;5.45;;;20.60;99.90;;;;;;5051585;28;20205;-73
2023/05/05 09:29:53;;;;;;;12.15;8.02;;;20.60;99.90;;;;;;5042265;28;20186;-73
2023/05/05 09:32:19;;;;;;;12.10;7.28;;;20.50;99.90;;;;;;5040376;28;20178;-72
2023/05/05 09:34:56;;;;;;;13.65;7.72;;;20.60;99.90;;;;;;5050322;28;20599;-72
2023/05/05 09:37:30;;;;;;;14.88;7.30;;;21.00;99.90;;;;;;5049380;28;20235;-72
2023/05/05 09:39:58;;;;;;;11.60;7.70;;;21.30;99.90;;;;;;5052127;28;20193;-72
2023/05/05 09:42:24;;;;;;;13.70;7.93;;;21.20;99.90;;;;;;5052639;28;20182;-71
2023/05/05 09:44:50;;;;;;;13.10;8.40;;;21.30;99.90;;;;;;5051352;28;20554;-72
2023/05/05 09:47:17;;;;;;;10.13;7.03;;;21.30;99.90;;;;;;5051082;28;20650;-71
2023/05/05 09:49:43;;;;;;;14.23;7.00;;;21.40;99.90;;;;;;5047359;28;20269;-73
2023/05/05 09:52:15;;;;;;;9.55;5.85;;;21.60;99.90;;;;;;5038942;28;20273;-72
2023/05/05 09:54:42;;;;;;;9.48;6.95;;;21.60;99.90;;;;;;5080353;28;20177;-73
2023/05/05 09:57:23;;;;;;;9.57;6.68;;;21.90;99.90;;;;;;5052519;28;20213;-72
2023/05/05 09:59:59;;;;;;;10.65;7.53;;;21.70;99.90;;;;;;5051672;28;20174;-73
2023/05/05 10:02:34;;;;;;;10.70;6.00;;;21.40;99.90;;;;;;5046827;28;20178;-72
2023/05/05 10:05:07;;;;;;;9.48;6.80;;;21.10;99.90;;;;;;5071898;28;20639;-73
2023/05/05 10:07:33;;;;;;;6.90;6.22;;;21.10;99.90;;;;;;5082386;28;20190;-71
2023/05/05 10:09:59;;;;;;;8.32;6.35;;;21.20;99.90;;;;;;5046612;28;20658;-73
2023/05/05 10:12:26;;;;;;;7.10;6.30;;;21.30;99.90;;;;;;5041008;28;20185;-70
2023/05/05 10:14:54;;;;;;;8.10;6.43;;;21.50;99.90;;;;;;5052646;28;20706;-72
2023/05/05 10:17:21;;;;;;;13.80;5.47;;;21.60;99.90;;;;;;5051866;28;20209;-75
2023/05/05 10:19:52;;;;;;;7.95;6.30;;;21.80;99.90;;;;;;5037916;28;20230;-73
2023/05/05 10:22:22;;;;;;;7.05;5.10;;;22.10;99.90;;;;;;5049224;28;20189;-71
2023/05/05 10:25:24;;;;;;;7.85;5.22;;;22.20;99.90;;;;;;5045662;28;20628;-71
2023/05/05 10:27:54;;;;;;;6.72;5.07;;;21.80;99.90;;;;;;5046861;28;20189;-71
2023/05/05 10:30:23;;;;;;;8.30;4.60;;;21.80;99.90;;;;;;5084113;28;20189;-72
2023/05/05 10:32:50;;;;;;;4.13;3.25;;;22.10;99.90;;;;;;5039866;28;20270;-71
2023/05/05 10:35:21;;;;;;;3.00;2.75;;;22.00;99.90;;;;;;5084048;28;20184;-72
2023/05/05 10:37:47;;;;;;;3.47;2.70;;;22.20;99.90;;;;;;5048450;28;20251;-72
2023/05/05 10:40:14;;;;;;;5.78;3.28;;;22.40;99.90;;;;;;5049701;28;20182;-73
2023/05/05 10:42:40;;;;;;;4.78;2.60;;;22.30;99.90;;;;;;5046680;28;20186;-71
2023/05/05 10:45:06;;;;;;;8.13;3.00;;;22.20;99.90;;;;;;5050131;28;20189;-71
2023/05/05 10:47:33;;;;;;;10.70;2.45;;;22.00;99.90;;;;;;5049382;28;20182;-72
2023/05/05 10:50:06;;;;;;;4.75;2.97;;;21.70;99.90;;;;;;5049016;28;20179;-70
2023/05/05 10:52:43;;;;;;;3.78;2.83;;;21.50;99.90;;;;;;5050173;28;20308;-72
2023/05/05 10:55:28;;;;;;;2.72;2.10;;;21.30;99.90;;;;;;5049951;28;20201;-71
2023/05/05 10:57:53;;;;;;;3.53;2.50;;;21.30;99.90;;;;;;5042832;28;20206;-72
2023/05/05 11:00:37;;;;;;;3.47;3.15;;;21.50;99.90;;;;;;5050319;28;20281;-74
2023/05/05 11:03:15;;;;;;;8.45;3.20;;;21.40;99.90;;;;;;5051864;28;20236;-71
2023/05/05 11:06:11;;;;;;;3.58;3.28;;;21.20;99.90;;;;;;5047526;28;20647;-72
2023/05/05 11:08:44;;;;;;;5.22;2.90;;;21.00;99.90;;;;;;5037924;28;20525;-72
2023/05/05 11:11:11;;;;;;;3.05;2.67;;;20.70;99.90;;;;;;5046379;28;20269;-71
2023/05/05 11:13:39;;;;;;;5.90;3.28;;;20.30;99.90;;;;;;5048394;28;20580;-72
2023/05/05 11:16:25;;;;;;;7.60;4.32;;;20.30;99.90;;;;;;5054780;28;20178;-72
2023/05/05 11:18:50;;;;;;;4.05;2.53;;;20.30;99.90;;;;;;5052328;28;20226;-77
2023/05/05 11:21:16;;;;;;;6.47;3.53;;;20.40;99.90;;;;;;5053454;28;20236;-73
2023/05/05 11:23:44;;;;;;;6.53;3.10;;;20.50;99.90;;;;;;5053445;28;20185;-72
2023/05/05 11:26:11;;;;;;;3.40;3.10;;;20.60;99.90;;;;;;5053710;28;20178;-73
2023/05/05 11:29:01;;;;;;;2.88;2.63;;;20.50;99.90;;;;;;5087389;28;20193;-73
2023/05/05 11:31:28;;;;;;;3.47;2.90;;;20.80;99.90;;;;;;5054651;28;20174;-74
2023/05/05 11:33:53;;;;;;;9.02;2.90;;;21.30;99.90;;;;;;5055113;28;20174;-72
2023/05/05 11:36:37;;;;;;;5.50;3.38;;;21.80;99.90;;;;;;5041388;28;20635;-73
2023/05/05 11:39:22;;;;;;;4.18;3.20;;;22.10;99.90;;;;;;5078680;28;20174;-72
2023/05/05 11:42:15;;;;;;;4.18;2.53;;;22.40;99.90;;;;;;5040607;28;20657;-73
2023/05/05 11:44:41;;;;;;;5.07;3.05;;;22.50;99.90;;;;;;5049957;28;20182;-72
2023/05/05 11:47:06;;;;;;;3.20;2.72;;;22.50;99.90;;;;;;5058636;28;20184;-72
2023/05/05 11:49:34;;;;;;;4.43;2.55;;;22.40;99.90;;;;;;5054727;28;20182;-73
2023/05/05 11:52:05;;;;;;;5.13;2.58;;;22.40;99.90;;;;;;5043218;28;20193;-72
2023/05/05 11:54:31;;;;;;;3.85;1.90;;;22.60;99.90;;;;;;5043407;28;20254;-72
2023/05/05 11:57:08;;;;;;;2.40;2.03;;;22.70;99.90;;;;;;5053213;28;20271;-72
2023/05/05 11:59:36;;;;;;;2.05;1.50;;;22.70;99.90;;;;;;5050893;28;20189;-73
2023/05/05 12:02:02;;;;;;;2.45;1.90;;;22.80;99.90;;;;;;5044523;28;20304;-73
2023/05/05 12:04:31;;;;;;;6.47;2.72;;;23.20;99.90;;;;;;5053145;28;20182;-73
2023/05/05 12:06:58;;;;;;;1.65;1.55;;;23.20;99.90;;;;;;5044159;28;20579;-72
2023/05/05 12:09:26;;;;;;;2.33;2.13;;;23.00;99.90;;;;;;5045273;28;20175;-73
2023/05/05 12:11:55;;;;;;;1.75;1.65;;;23.40;99.90;;;;;;5050592;28;20686;-73
2023/05/05 12:14:22;;;;;;;2.17;1.35;;;23.30;99.90;;;;;;5086379;28;20232;-75
2023/05/05 12:17:00;;;;;;;3.33;2.00;;;23.50;99.90;;;;;;5047943;28;20651;-72
2023/05/05 12:19:32;;;;;;;1.52;0.95;;;23.40;99.90;;;;;;5042022;28;20610;-72
2023/05/05 12:21:58;;;;;;;6.45;1.33;;;23.40;99.90;;;;;;5039517;28;20167;-72
2023/05/05 12:24:24;;;;;;;0.90;0.90;;;23.20;99.90;;;;;;5052555;28;20228;-72
2023/05/05 12:26:50;;;;;;;2.55;1.08;;;23.00;99.90;;;;;;5086407;28;20178;-71
2023/05/05 12:29:34;;;;;;;1.50;1.40;;;22.80;99.90;;;;;;5047103;28;20596;-72
2023/05/05 12:31:59;;;;;;;3.38;1.20;;;22.10;99.90;;;;;;5069309;28;20182;-71
2023/05/05 12:34:26;;;;;;;2.83;1.23;;;21.70;99.90;;;;;;5052213;28;20272;-70
2023/05/05 12:36:52;;;;;;;1.90;0.60;;;21.50;99.90;;;;;;5049014;28;20288;-70
2023/05/05 12:39:17;;;;;;;1.50;0.93;;;20.80;99.90;;;;;;5054136;28;20186;-71
2023/05/05 12:41:43;;;;;;;0.80;0.73;;;20.30;99.90;;;;;;5042702;28;20261;-72
2023/05/05 12:44:09;;;;;;;2.10;1.58;;;19.90;99.90;;;;;;5048342;28;20178;-72
2023/05/05 12:46:45;;;;;;;1.55;1.35;;;19.70;99.90;;;;;;5050517;28;20185;-72
2023/05/05 12:49:11;;;;;;;3.67;1.80;;;19.80;99.90;;;;;;5054066;28;20188;-70
2023/05/05 12:51:38;;;;;;;2.83;2.58;;;20.20;99.90;;;;;;5034859;28;20178;-71